Time;durP1;ratioP1;P1;durP2;ratioP2;P2;SDS_P1;SDS_P2;PMS_P1;PMS_P2;Temp;Humidity;BMP_temperature;BMP_pressure;BME280_temperature;BME280_humidity;BME280_pressure;Samples;Min_cycle;Max_cycle;Signal;HPM_P1;HPM_P2
2023/09/13 00:00:18;;;;;;;5.63;5.13;;;25.70;62.70;;;;;;4972161;28;20570;-66
2023/09/13 00:02:43;;;;;;;5.50;4.97;;;25.60;62.60;;;;;;4972623;28;20201;-66
2023/09/13 00:05:09;;;;;;;5.10;4.70;;;25.70;62.70;;;;;;4972226;28;20639;-65
2023/09/13 00:07:38;;;;;;;5.37;4.87;;;25.60;62.60;;;;;;4972701;28;20185;-66
2023/09/13 00:10:04;;;;;;;5.07;4.67;;;25.70;62.70;;;;;;4974419;28;20670;-66
2023/09/13 00:12:29;;;;;;;5.60;5.10;;;25.60;62.60;;;;;;4975930;28;20506;-66
2023/09/13 00:14:55;;;;;;;5.73;5.23;;;25.60;62.60;;;;;;4976080;28;20409;-64
2023/09/13 00:17:21;;;;;;;6.23;5.63;;;25.60;62.60;;;;;;4975984;28;20185;-66
2023/09/13 00:19:47;;;;;;;5.23;4.73;;;25.60;62.60;;;;;;4975609;28;20182;-66
2023/09/13 00:22:12;;;;;;;5.23;4.73;;;25.60;62.60;;;;;;4974932;28;20974;-65
2023/09/13 00:24:38;;;;;;;5.27;4.87;;;25.60;62.60;;;;;;4975936;28;20193;-66
2023/09/13 00:27:04;;;;;;;5.77;5.17;;;25.60;62.60;;;;;;4975880;28;20166;-66
2023/09/13 00:29:33;;;;;;;4.83;4.43;;;25.60;62.60;;;;;;4975609;28;20205;-66
2023/09/13 00:32:02;;;;;;;5.67;5.17;;;25.60;62.60;;;;;;4975764;28;20196;-66
2023/09/13 00:34:27;;;;;;;5.43;4.93;;;25.60;62.60;;;;;;4975742;28;20452;-66
2023/09/13 00:36:53;;;;;;;4.80;4.40;;;25.60;62.60;;;;;;4975736;28;20401;-66
2023/09/13 00:39:19;;;;;;;4.90;4.50;;;25.60;62.60;;;;;;4975383;28;20189;-66
2023/09/13 00:41:44;;;;;;;4.90;4.50;;;25.60;62.60;;;;;;4975686;28;20217;-64
2023/09/13 00:44:10;;;;;;;5.80;4.83;;;25.60;62.60;;;;;;4975639;28;20184;-66
2023/09/13 00:46:36;;;;;;;5.27;4.87;;;25.60;62.60;;;;;;4975654;28;20715;-65
2023/09/13 00:49:03;;;;;;;5.87;5.37;;;25.60;62.60;;;;;;4975371;28;20216;-66
2023/09/13 00:51:29;;;;;;;5.30;4.90;;;25.60;62.60;;;;;;4956054;28;20509;-67
2023/09/13 00:53:56;;;;;;;5.77;5.27;;;25.60;62.60;;;;;;4956065;28;20843;-66
2023/09/13 00:56:22;;;;;;;5.10;4.37;;;25.60;62.60;;;;;;4956074;28;20414;-66
2023/09/13 00:58:48;;;;;;;5.00;4.60;;;25.60;62.60;;;;;;4956022;28;20590;-66
2023/09/13 01:01:15;;;;;;;4.77;4.37;;;25.60;62.60;;;;;;4973524;28;20580;-66
2023/09/13 01:03:42;;;;;;;6.30;5.70;;;25.60;62.60;;;;;;4975263;28;20449;-66
2023/09/13 01:06:09;;;;;;;5.97;4.90;;;25.60;62.60;;;;;;4975197;28;20409;-66
2023/09/13 01:08:39;;;;;;;5.30;4.80;;;25.60;62.60;;;;;;4975182;28;20496;-66
2023/09/13 01:11:06;;;;;;;4.67;4.37;;;25.60;62.70;;;;;;4974666;28;20978;-66
2023/09/13 01:13:31;;;;;;;4.77;4.27;;;25.60;62.60;;;;;;4974862;28;20464;-66
2023/09/13 01:15:57;;;;;;;5.30;4.80;;;25.60;62.60;;;;;;4974991;28;20903;-66
2023/09/13 01:18:36;;;;;;;5.07;4.67;;;25.60;62.60;;;;;;4975006;28;20169;-66
2023/09/13 01:21:33;;;;;;;5.80;5.30;;;25.60;62.60;;;;;;4974453;28;20232;-67
2023/09/13 01:24:26;;;;;;;5.33;4.83;;;25.60;62.60;;;;;;4974854;28;20401;-66
2023/09/13 01:27:30;;;;;;;5.03;4.63;;;25.60;62.70;;;;;;4974834;28;20916;-66
2023/09/13 01:29:59;;;;;;;4.53;4.13;;;25.60;62.60;;;;;;4974553;28;20475;-66
2023/09/13 01:32:25;;;;;;;5.80;5.30;;;25.60;62.80;;;;;;4974220;28;20441;-66
2023/09/13 01:34:50;;;;;;;5.03;4.63;;;25.60;62.80;;;;;;4973484;28;20475;-66
2023/09/13 01:37:16;;;;;;;5.17;4.77;;;25.60;62.80;;;;;;4974870;28;20169;-66
2023/09/13 01:39:41;;;;;;;6.53;5.47;;;25.60;62.80;;;;;;4973220;28;20599;-65
2023/09/13 01:42:10;;;;;;;4.70;4.30;;;25.60;62.70;;;;;;4974469;28;20197;-66
2023/09/13 01:44:40;;;;;;;4.33;3.97;;;25.60;62.70;;;;;;4974491;28;20210;-66
2023/09/13 01:47:08;;;;;;;4.20;3.90;;;25.60;62.70;;;;;;4974483;28;20551;-66
2023/09/13 01:49:36;;;;;;;5.10;4.67;;;25.60;62.60;;;;;;4974100;28;20429;-66
2023/09/13 01:52:05;;;;;;;4.77;4.33;;;25.60;62.70;;;;;;4974507;28;20429;-66
2023/09/13 01:54:35;;;;;;;5.17;4.77;;;25.60;62.70;;;;;;4974388;28;20492;-66
2023/09/13 01:57:01;;;;;;;4.70;4.30;;;25.60;62.60;;;;;;4974309;28;20981;-66
2023/09/13 01:59:26;;;;;;;4.73;4.33;;;25.60;62.70;;;;;;4973922;28;20923;-66
2023/09/13 02:01:52;;;;;;;5.70;5.00;;;25.60;62.70;;;;;;4974074;28;20440;-66
2023/09/13 02:04:18;;;;;;;4.73;4.33;;;25.60;62.70;;;;;;4974093;28;20185;-65
2023/09/13 02:06:43;;;;;;;4.50;4.10;;;25.60;62.60;;;;;;4973994;28;20672;-65
2023/09/13 02:09:09;;;;;;;4.70;4.30;;;25.60;62.60;;;;;;4973740;28;20193;-66
2023/09/13 02:11:34;;;;;;;4.40;4.10;;;25.60;62.60;;;;;;4972581;28;20206;-66
2023/09/13 02:14:00;;;;;;;4.70;4.30;;;25.60;62.60;;;;;;4973374;28;20209;-66
2023/09/13 02:16:25;;;;;;;6.07;5.10;;;25.60;62.60;;;;;;4973598;28;20652;-66
2023/09/13 02:18:51;;;;;;;5.27;4.87;;;25.60;62.60;;;;;;4973820;28;20166;-66
2023/09/13 02:21:17;;;;;;;4.70;4.33;;;25.60;62.60;;;;;;4972170;28;20202;-66
2023/09/13 02:23:43;;;;;;;5.40;5.00;;;25.60;62.60;;;;;;4973525;28;20197;-66
2023/09/13 02:26:22;;;;;;;4.23;3.93;;;25.60;62.60;;;;;;4973380;28;20192;-65
2023/09/13 02:28:48;;;;;;;4.93;4.50;;;25.60;62.60;;;;;;4972745;28;20401;-66
2023/09/13 02:31:24;;;;;;;5.03;4.63;;;25.60;62.60;;;;;;4973114;28;20476;-67
2023/09/13 02:33:49;;;;;;;4.67;4.27;;;25.60;62.60;;;;;;4973023;28;20186;-66
2023/09/13 02:36:15;;;;;;;4.43;4.10;;;25.60;62.60;;;;;;4972656;28;20472;-66
2023/09/13 02:38:41;;;;;;;4.83;4.43;;;25.60;62.60;;;;;;4973236;28;20413;-66
2023/09/13 02:41:06;;;;;;;4.30;3.90;;;25.60;62.60;;;;;;4973056;28;20198;-66
2023/09/13 02:43:32;;;;;;;4.93;4.53;;;25.60;62.60;;;;;;4973358;28;20243;-66
2023/09/13 02:45:58;;;;;;;4.90;4.50;;;25.60;62.60;;;;;;4973361;28;20543;-66
2023/09/13 02:48:23;;;;;;;4.83;4.43;;;25.60;62.60;;;;;;4973211;28;20182;-66
2023/09/13 02:50:49;;;;;;;4.90;4.50;;;25.60;62.60;;;;;;4972817;28;20178;-65
2023/09/13 02:53:14;;;;;;;5.20;4.77;;;25.60;62.60;;;;;;4973069;28;20205;-66
2023/09/13 02:55:40;;;;;;;5.60;5.10;;;25.60;62.60;;;;;;4973105;28;20699;-66
2023/09/13 02:58:06;;;;;;;5.10;4.70;;;25.60;62.60;;;;;;4973042;28;20193;-66
2023/09/13 03:00:31;;;;;;;5.23;4.73;;;25.60;62.60;;;;;;4971516;28;20232;-66
2023/09/13 03:02:58;;;;;;;4.80;4.40;;;25.60;62.60;;;;;;4972959;28;20621;-66
2023/09/13 03:05:23;;;;;;;4.67;4.27;;;25.60;62.60;;;;;;4972960;28;20169;-66
2023/09/13 03:07:49;;;;;;;4.27;3.87;;;25.60;62.60;;;;;;4972778;28;20942;-66
2023/09/13 03:10:15;;;;;;;4.67;4.27;;;25.60;62.60;;;;;;4971987;28;20308;-66
2023/09/13 03:12:40;;;;;;;5.13;4.73;;;25.60;62.60;;;;;;4972393;28;20214;-66
2023/09/13 03:15:06;;;;;;;4.50;4.20;;;25.60;62.60;;;;;;4972809;28;20204;-66
2023/09/13 03:17:32;;;;;;;4.57;4.17;;;25.60;62.60;;;;;;4972871;28;20265;-66
2023/09/13 03:19:58;;;;;;;4.50;4.10;;;25.60;62.60;;;;;;4972480;28;20186;-66
2023/09/13 03:22:23;;;;;;;4.60;4.20;;;25.60;62.60;;;;;;4972745;28;21114;-66
2023/09/13 03:24:49;;;;;;;5.10;4.70;;;25.60;62.50;;;;;;4972488;28;20719;-66
2023/09/13 03:27:15;;;;;;;4.03;3.73;;;25.60;62.60;;;;;;4972646;28;20264;-69
2023/09/13 03:29:40;;;;;;;4.33;4.00;;;25.60;62.60;;;;;;4972324;28;20552;-66
2023/09/13 03:32:09;;;;;;;5.40;4.27;;;25.60;62.50;;;;;;4972525;28;20221;-66
2023/09/13 03:34:37;;;;;;;5.40;4.90;;;25.60;62.60;;;;;;4972487;28;20202;-66
2023/09/13 03:37:03;;;;;;;4.50;4.10;;;25.60;62.60;;;;;;4972548;28;20524;-66
2023/09/13 03:39:29;;;;;;;4.60;4.20;;;25.60;62.60;;;;;;4972506;28;20762;-66
2023/09/13 03:41:56;;;;;;;4.53;4.13;;;25.50;62.50;;;;;;4972403;28;20567;-66
2023/09/13 03:44:22;;;;;;;4.60;4.20;;;25.60;62.60;;;;;;4973809;28;20181;-66
2023/09/13 03:46:48;;;;;;;4.00;3.70;;;25.60;62.60;;;;;;4976489;28;20417;-66
2023/09/13 03:49:14;;;;;;;4.50;3.87;;;25.60;62.60;;;;;;4976153;28;20173;-66
2023/09/13 03:51:39;;;;;;;4.33;4.03;;;25.60;62.60;;;;;;4976563;28;20201;-67
2023/09/13 03:54:05;;;;;;;4.50;4.10;;;25.50;62.50;;;;;;4976252;28;20468;-66
2023/09/13 03:56:30;;;;;;;3.73;3.43;;;25.60;62.60;;;;;;4976434;28;20174;-66
2023/09/13 03:58:56;;;;;;;4.73;4.33;;;25.50;62.50;;;;;;4976196;28;20212;-66
2023/09/13 04:01:22;;;;;;;4.63;4.23;;;25.60;62.60;;;;;;4975934;28;20702;-66
2023/09/13 04:03:48;;;;;;;4.63;4.23;;;25.60;62.60;;;;;;4976206;28;20174;-66
2023/09/13 04:06:13;;;;;;;4.00;3.70;;;25.60;62.60;;;;;;4976132;28;20174;-66
2023/09/13 04:08:39;;;;;;;4.60;4.20;;;25.50;62.50;;;;;;4976119;28;20182;-66
2023/09/13 04:11:05;;;;;;;4.00;3.70;;;25.50;62.50;;;;;;4975696;28;20256;-66
2023/09/13 04:13:30;;;;;;;4.50;4.10;;;25.50;62.50;;;;;;4975819;28;20209;-64
2023/09/13 04:16:04;;;;;;;4.50;4.10;;;25.50;62.50;;;;;;4975956;28;20170;-66
2023/09/13 04:18:29;;;;;;;4.73;4.23;;;25.50;62.50;;;;;;4975890;28;20170;-66
2023/09/13 04:20:55;;;;;;;4.33;3.93;;;25.50;62.50;;;;;;4975734;28;20417;-66
2023/09/13 04:23:20;;;;;;;3.87;3.57;;;25.50;63.40;;;;;;4975918;28;20629;-65
2023/09/13 04:25:46;;;;;;;4.43;3.90;;;25.50;62.50;;;;;;4975816;28;20177;-66
2023/09/13 04:28:14;;;;;;;4.67;4.27;;;25.50;62.50;;;;;;4975768;28;20188;-65
2023/09/13 04:30:39;;;;;;;4.10;3.80;;;25.50;62.50;;;;;;4973337;28;20268;-66
2023/09/13 04:33:06;;;;;;;4.40;4.00;;;25.60;62.60;;;;;;4975341;28;20500;-66
2023/09/13 04:35:33;;;;;;;4.33;3.93;;;25.50;62.90;;;;;;4976154;28;20173;-66
2023/09/13 04:37:58;;;;;;;3.83;3.50;;;25.50;62.50;;;;;;4975481;28;20541;-65
2023/09/13 04:40:24;;;;;;;4.77;4.37;;;25.60;62.70;;;;;;4975008;28;20507;-65
2023/09/13 04:43:16;;;;;;;4.40;4.00;;;25.50;62.50;;;;;;4975285;28;20201;-65
2023/09/13 04:45:41;;;;;;;4.20;3.90;;;25.60;62.60;;;;;;4975261;28;20174;-66
2023/09/13 04:48:07;;;;;;;4.27;3.93;;;25.50;62.60;;;;;;4975309;28;20420;-66
2023/09/13 04:50:33;;;;;;;3.93;3.63;;;25.60;62.70;;;;;;4975113;28;20185;-66
2023/09/13 04:52:58;;;;;;;4.20;3.80;;;25.50;62.60;;;;;;4975032;28;20578;-66
2023/09/13 04:55:26;;;;;;;3.87;3.57;;;25.50;62.60;;;;;;4974403;28;20260;-65
2023/09/13 04:57:52;;;;;;;4.67;4.27;;;25.50;62.50;;;;;;4973733;28;20742;-65
2023/09/13 05:00:17;;;;;;;4.03;3.67;;;25.50;62.50;;;;;;4975121;28;20441;-66
2023/09/13 05:02:43;;;;;;;4.33;3.93;;;25.50;62.50;;;;;;4974668;28;20726;-66
2023/09/13 05:05:08;;;;;;;4.10;3.67;;;25.50;62.60;;;;;;4974225;28;20192;-66
2023/09/13 05:07:34;;;;;;;4.10;3.70;;;25.50;62.50;;;;;;4974469;28;20184;-65
2023/09/13 05:10:00;;;;;;;3.73;3.43;;;25.50;62.50;;;;;;4974844;28;20276;-65
2023/09/13 05:12:25;;;;;;;4.77;4.13;;;25.50;62.60;;;;;;4974172;28;20592;-65
2023/09/13 05:14:51;;;;;;;3.70;3.40;;;25.50;62.60;;;;;;4974426;28;20169;-66
2023/09/13 05:17:17;;;;;;;4.00;3.70;;;25.50;62.60;;;;;;4974755;28;20605;-66
2023/09/13 05:19:43;;;;;;;4.10;3.70;;;25.50;62.60;;;;;;4974753;28;20308;-64
2023/09/13 05:22:08;;;;;;;4.17;3.87;;;25.50;62.50;;;;;;4974666;28;20512;-66
2023/09/13 05:24:34;;;;;;;4.00;3.70;;;25.50;62.50;;;;;;4974628;28;20182;-65
2023/09/13 05:26:59;;;;;;;4.27;3.97;;;25.50;62.60;;;;;;4974444;28;20239;-65
2023/09/13 05:29:25;;;;;;;4.30;3.93;;;25.50;62.50;;;;;;4974586;28;20174;-65
2023/09/13 05:31:51;;;;;;;3.67;3.37;;;25.50;62.50;;;;;;4974404;28;20201;-66
2023/09/13 05:34:16;;;;;;;4.50;4.10;;;25.60;62.60;;;;;;4974352;28;20200;-66
2023/09/13 05:36:42;;;;;;;3.50;3.20;;;25.50;62.50;;;;;;4974354;28;20182;-65
2023/09/13 05:39:08;;;;;;;3.70;3.40;;;25.50;62.50;;;;;;4974320;28;20162;-66
2023/09/13 05:41:34;;;;;;;4.20;3.90;;;25.50;62.50;;;;;;4974138;28;20197;-65
2023/09/13 05:43:59;;;;;;;4.13;3.80;;;25.50;62.50;;;;;;4974069;28;20476;-66
2023/09/13 05:46:25;;;;;;;3.60;3.30;;;25.50;62.60;;;;;;4974074;28;20184;-65
2023/09/13 05:48:51;;;;;;;3.20;2.97;;;25.50;62.50;;;;;;4974037;28;20955;-66
2023/09/13 05:51:17;;;;;;;3.70;3.40;;;25.50;62.50;;;;;;4973908;28;20217;-66
2023/09/13 05:53:43;;;;;;;3.73;3.43;;;25.50;62.50;;;;;;4973882;28;20249;-65
2023/09/13 05:56:12;;;;;;;3.57;3.27;;;25.50;62.50;;;;;;4973827;28;20984;-64
2023/09/13 05:58:38;;;;;;;3.40;3.20;;;25.50;62.50;;;;;;4973707;28;20213;-66
2023/09/13 06:01:04;;;;;;;3.80;3.50;;;25.60;62.60;;;;;;4973657;28;20429;-66
2023/09/13 06:03:32;;;;;;;3.80;3.50;;;25.50;62.50;;;;;;4973840;28;20439;-66
2023/09/13 06:05:57;;;;;;;3.90;3.57;;;25.50;62.50;;;;;;4973575;28;20464;-66
2023/09/13 06:08:23;;;;;;;4.20;3.80;;;25.50;62.50;;;;;;4972949;28;20413;-65
2023/09/13 06:10:48;;;;;;;3.70;3.40;;;25.50;62.50;;;;;;4972231;28;20189;-66
2023/09/13 06:13:15;;;;;;;3.87;3.57;;;25.50;62.50;;;;;;4973325;28;20562;-66
2023/09/13 06:15:41;;;;;;;3.57;3.27;;;25.50;62.50;;;;;;4973546;28;20177;-65
2023/09/13 06:18:06;;;;;;;3.23;3.03;;;25.50;62.50;;;;;;4973526;28;20427;-66
2023/09/13 06:20:32;;;;;;;3.97;3.67;;;25.50;62.50;;;;;;4973342;28;20488;-66
2023/09/13 06:22:59;;;;;;;3.87;3.57;;;25.50;62.50;;;;;;4973015;28;20197;-66
2023/09/13 06:25:24;;;;;;;3.63;3.33;;;25.50;62.50;;;;;;4973297;28;20196;-65
2023/09/13 06:27:50;;;;;;;4.63;3.87;;;25.50;62.40;;;;;;4971912;28;20928;-67
2023/09/13 06:30:16;;;;;;;4.43;4.03;;;25.50;62.60;;;;;;4973296;28;20185;-67
2023/09/13 06:32:42;;;;;;;4.57;4.17;;;25.50;62.60;;;;;;4971731;28;20201;-66
2023/09/13 06:35:12;;;;;;;4.60;4.20;;;25.50;62.60;;;;;;4971799;28;20181;-65
2023/09/13 06:37:39;;;;;;;5.00;4.60;;;25.50;62.50;;;;;;4972919;28;20774;-67
2023/09/13 06:40:05;;;;;;;5.90;5.30;;;25.60;62.70;;;;;;4972897;28;20428;-66
2023/09/13 06:42:31;;;;;;;7.00;6.30;;;25.50;62.60;;;;;;4972065;28;20448;-67
2023/09/13 06:44:59;;;;;;;6.77;6.13;;;25.50;62.60;;;;;;4971083;28;20413;-63
2023/09/13 06:47:25;;;;;;;7.40;6.37;;;25.50;62.60;;;;;;4972263;28;20174;-66
2023/09/13 06:49:51;;;;;;;9.30;7.60;;;25.50;62.80;;;;;;4972583;28;20417;-64
2023/09/13 06:52:16;;;;;;;6.90;6.30;;;25.50;62.80;;;;;;4972782;28;20429;-67
2023/09/13 06:54:43;;;;;;;7.83;6.77;;;25.50;62.70;;;;;;4972977;28;20225;-64
2023/09/13 06:57:08;;;;;;;8.23;7.60;;;25.50;62.80;;;;;;4972758;28;21057;-65
2023/09/13 06:59:35;;;;;;;7.17;6.47;;;25.50;62.80;;;;;;4972748;28;20178;-65
2023/09/13 07:02:00;;;;;;;9.30;7.63;;;25.50;62.80;;;;;;4972223;28;20188;-67
2023/09/13 07:04:26;;;;;;;7.20;6.50;;;25.50;62.80;;;;;;4971746;28;20423;-67
2023/09/13 07:06:51;;;;;;;7.13;6.47;;;25.50;62.80;;;;;;4972902;28;20188;-66
2023/09/13 07:09:17;;;;;;;7.67;6.97;;;25.50;62.80;;;;;;4972535;28;20265;-66
2023/09/13 07:11:43;;;;;;;7.10;6.50;;;25.50;62.80;;;;;;4972654;28;20201;-66
2023/09/13 07:14:09;;;;;;;8.30;7.50;;;25.50;62.70;;;;;;4972323;28;20209;-65
2023/09/13 07:16:34;;;;;;;6.70;6.20;;;25.50;62.80;;;;;;4972489;28;20425;-66
2023/09/13 07:19:02;;;;;;;7.47;6.70;;;25.50;62.80;;;;;;4972376;28;20169;-67
2023/09/13 07:21:28;;;;;;;7.73;7.00;;;25.50;62.70;;;;;;4972338;28;20276;-66
2023/09/13 07:23:54;;;;;;;7.57;6.87;;;25.50;62.80;;;;;;4972683;28;21003;-65
2023/09/13 07:26:20;;;;;;;7.27;6.67;;;25.50;62.70;;;;;;4972085;28;20499;-66
2023/09/13 07:28:46;;;;;;;7.57;6.87;;;25.50;62.70;;;;;;4971084;28;20185;-66
2023/09/13 07:31:12;;;;;;;6.97;6.27;;;25.50;62.60;;;;;;4972268;28;20612;-65
2023/09/13 07:33:37;;;;;;;6.03;5.50;;;25.50;62.60;;;;;;4971665;28;20197;-66
2023/09/13 07:36:03;;;;;;;5.93;5.43;;;25.50;62.40;;;;;;4972027;28;20181;-66
2023/09/13 07:38:29;;;;;;;6.00;5.30;;;25.50;62.40;;;;;;4972218;28;20249;-66
2023/09/13 07:40:54;;;;;;;5.93;5.40;;;25.50;63.10;;;;;;4972182;28;20173;-66
2023/09/13 07:43:20;;;;;;;5.90;5.40;;;25.50;62.20;;;;;;4972126;28;20173;-65
2023/09/13 07:45:46;;;;;;;6.43;5.83;;;25.50;62.30;;;;;;4970869;28;20225;-67
2023/09/13 07:48:12;;;;;;;5.90;5.00;;;25.50;62.30;;;;;;4972136;28;20569;-67
2023/09/13 07:50:42;;;;;;;5.50;5.00;;;25.50;62.20;;;;;;4972054;28;20419;-66
2023/09/13 07:53:08;;;;;;;4.87;4.37;;;25.50;62.20;;;;;;4971989;28;20197;-66
2023/09/13 07:55:34;;;;;;;5.47;4.97;;;25.50;62.10;;;;;;4972263;28;20409;-67
2023/09/13 07:58:00;;;;;;;4.70;4.30;;;25.50;62.00;;;;;;4972029;28;20413;-65
2023/09/13 08:00:26;;;;;;;4.70;4.30;;;25.50;61.90;;;;;;4972023;28;20420;-65
2023/09/13 08:02:52;;;;;;;4.80;4.30;;;25.50;62.00;;;;;;4971889;28;20806;-65
2023/09/13 08:05:17;;;;;;;4.87;4.07;;;25.50;61.90;;;;;;4971971;28;20185;-65
2023/09/13 08:07:46;;;;;;;4.40;3.97;;;25.50;61.90;;;;;;4972025;28;20657;-66
2023/09/13 08:10:12;;;;;;;4.13;3.73;;;25.50;61.90;;;;;;4971953;28;20185;-66
2023/09/13 08:12:38;;;;;;;4.10;3.80;;;25.40;61.60;;;;;;4970629;28;20841;-66
2023/09/13 08:15:04;;;;;;;3.17;2.87;;;25.50;61.70;;;;;;4971900;28;20230;-66
2023/09/13 08:17:31;;;;;;;4.00;3.67;;;25.40;61.50;;;;;;4971885;28;20712;-66
2023/09/13 08:19:57;;;;;;;3.87;2.97;;;25.40;61.40;;;;;;4971737;28;20471;-66
2023/09/13 08:22:23;;;;;;;3.33;3.03;;;25.50;61.40;;;;;;4972023;28;20429;-67
2023/09/13 08:24:48;;;;;;;3.17;2.90;;;25.50;61.40;;;;;;4972368;28;20205;-66
2023/09/13 08:27:14;;;;;;;3.10;2.80;;;25.50;61.50;;;;;;4971998;28;20200;-66
2023/09/13 08:29:40;;;;;;;4.00;3.60;;;25.40;61.30;;;;;;4972116;28;20177;-65
2023/09/13 08:32:06;;;;;;;3.33;3.03;;;25.40;61.20;;;;;;4975404;28;20207;-66
2023/09/13 08:34:33;;;;;;;2.97;2.77;;;25.40;61.20;;;;;;4975247;28;20233;-66
2023/09/13 08:36:58;;;;;;;2.97;2.77;;;25.50;62.10;;;;;;4975596;28;20417;-66
2023/09/13 08:39:24;;;;;;;3.43;3.13;;;25.40;61.20;;;;;;4975260;28;20515;-66
2023/09/13 08:41:53;;;;;;;3.40;3.10;;;25.50;61.10;;;;;;4975067;28;20229;-66
2023/09/13 08:44:20;;;;;;;3.67;3.37;;;25.40;61.00;;;;;;4975137;28;20927;-67
2023/09/13 08:46:51;;;;;;;2.93;2.73;;;25.40;61.10;;;;;;4974713;28;20452;-66
2023/09/13 08:49:17;;;;;;;4.10;3.00;;;25.40;61.00;;;;;;4974828;28;20487;-66
2023/09/13 08:51:46;;;;;;;3.17;2.90;;;25.40;60.90;;;;;;4974952;28;20943;-67
2023/09/13 08:54:13;;;;;;;3.63;2.90;;;25.40;60.90;;;;;;4974646;28;20807;-66
2023/09/13 08:56:42;;;;;;;4.07;3.50;;;25.40;61.10;;;;;;4973360;28;20926;-66
2023/09/13 08:59:08;;;;;;;2.80;2.60;;;25.40;61.10;;;;;;4974736;28;20410;-66
2023/09/13 09:01:36;;;;;;;3.90;3.50;;;25.40;61.00;;;;;;4974740;28;20433;-66
2023/09/13 09:04:02;;;;;;;3.60;3.23;;;25.40;61.00;;;;;;4974108;28;20436;-66
2023/09/13 09:06:30;;;;;;;3.13;2.90;;;25.40;61.00;;;;;;4974385;28;20409;-66
2023/09/13 09:08:56;;;;;;;2.87;2.67;;;25.40;61.00;;;;;;4974011;28;20181;-66
2023/09/13 09:11:25;;;;;;;3.27;2.97;;;25.40;61.00;;;;;;4973880;28;20451;-65
2023/09/13 09:13:53;;;;;;;3.50;3.20;;;25.40;61.00;;;;;;4974354;28;20475;-66
2023/09/13 09:16:21;;;;;;;3.43;2.90;;;25.40;61.00;;;;;;4974206;28;20413;-66
2023/09/13 09:18:47;;;;;;;3.30;3.03;;;25.40;61.00;;;;;;4973834;28;20417;-66
2023/09/13 09:21:13;;;;;;;3.87;2.97;;;25.40;61.00;;;;;;4974143;28;21198;-66
2023/09/13 09:23:40;;;;;;;3.40;3.10;;;25.40;61.00;;;;;;4974373;28;20871;-67
2023/09/13 09:26:06;;;;;;;3.33;3.03;;;25.40;61.00;;;;;;4974113;28;20424;-67
2023/09/13 09:28:32;;;;;;;3.90;3.10;;;25.40;61.10;;;;;;4973829;28;20421;-66
2023/09/13 09:31:01;;;;;;;3.60;3.30;;;25.40;61.00;;;;;;4972465;28;20181;-66
2023/09/13 09:33:28;;;;;;;3.73;2.90;;;25.40;61.10;;;;;;4973587;28;20463;-66
2023/09/13 09:35:55;;;;;;;3.97;3.20;;;25.40;61.10;;;;;;4972868;28;20419;-66
2023/09/13 09:38:23;;;;;;;4.13;3.80;;;25.40;61.00;;;;;;4973049;28;20857;-67
2023/09/13 09:40:50;;;;;;;3.90;3.60;;;25.40;60.90;;;;;;4973642;28;20417;-66
2023/09/13 09:43:16;;;;;;;3.87;3.47;;;25.40;60.90;;;;;;4973235;28;20425;-66
2023/09/13 09:45:42;;;;;;;3.87;3.57;;;25.40;60.90;;;;;;4973941;28;20417;-66
2023/09/13 09:48:08;;;;;;;3.97;3.50;;;25.40;60.80;;;;;;4972833;28;20978;-66
2023/09/13 09:50:34;;;;;;;3.73;3.43;;;25.40;60.80;;;;;;4972603;28;20209;-66
2023/09/13 09:53:08;;;;;;;3.27;3.00;;;25.40;60.80;;;;;;4972355;28;20469;-67
2023/09/13 09:55:35;;;;;;;4.20;3.90;;;25.40;60.70;;;;;;4973430;28;20224;-66
2023/09/13 09:58:02;;;;;;;5.80;4.10;;;25.40;60.70;;;;;;4972666;28;20447;-65
2023/09/13 10:00:27;;;;;;;4.10;3.77;;;25.40;60.60;;;;;;4973806;28;20865;-66
2023/09/13 10:02:53;;;;;;;4.67;4.27;;;25.40;60.60;;;;;;4973632;28;20531;-66
2023/09/13 10:05:20;;;;;;;4.70;4.30;;;25.40;60.60;;;;;;4973751;28;20182;-67
2023/09/13 10:07:54;;;;;;;4.90;4.50;;;25.40;60.50;;;;;;4971950;28;20192;-66
2023/09/13 10:10:30;;;;;;;4.47;4.07;;;25.40;61.30;;;;;;4972985;28;20974;-67
2023/09/13 10:12:56;;;;;;;4.43;4.03;;;25.40;60.30;;;;;;4972753;28;20820;-66
2023/09/13 10:15:22;;;;;;;4.50;4.10;;;25.40;60.30;;;;;;4972764;28;20431;-66
2023/09/13 10:17:49;;;;;;;3.83;3.50;;;25.40;60.30;;;;;;4973081;28;20180;-66
2023/09/13 10:20:21;;;;;;;4.87;4.47;;;25.40;60.30;;;;;;4972873;28;20854;-66
2023/09/13 10:22:49;;;;;;;3.87;3.57;;;25.40;60.40;;;;;;4973229;28;20433;-66
2023/09/13 10:25:18;;;;;;;5.30;4.17;;;25.40;60.40;;;;;;4973278;28;20896;-66
2023/09/13 10:27:51;;;;;;;4.23;3.90;;;25.40;60.40;;;;;;4973321;28;20428;-65
2023/09/13 10:30:24;;;;;;;4.67;4.00;;;25.50;60.60;;;;;;4973279;28;20404;-66
2023/09/13 10:32:56;;;;;;;3.70;3.40;;;25.50;60.60;;;;;;4972972;28;20439;-66
2023/09/13 10:35:23;;;;;;;3.80;3.47;;;25.40;60.60;;;;;;4973201;28;20410;-66
2023/09/13 10:38:02;;;;;;;5.20;4.70;;;25.40;60.70;;;;;;4972996;28;20413;-66
2023/09/13 10:40:41;;;;;;;4.20;3.90;;;25.40;60.60;;;;;;4972821;28;20405;-66
2023/09/13 10:43:08;;;;;;;4.13;3.73;;;25.50;60.70;;;;;;4972845;28;20806;-66
2023/09/13 10:45:34;;;;;;;4.10;3.80;;;25.50;60.80;;;;;;4972857;28;20413;-67
2023/09/13 10:48:03;;;;;;;3.87;3.57;;;25.40;60.70;;;;;;4972713;28;20413;-66
2023/09/13 10:50:29;;;;;;;3.63;3.33;;;25.50;60.80;;;;;;4972786;28;20508;-65
2023/09/13 10:52:55;;;;;;;4.10;3.80;;;25.50;60.70;;;;;;4972325;28;20571;-66
2023/09/13 10:55:22;;;;;;;4.90;4.40;;;25.50;60.70;;;;;;4972632;28;20174;-65
2023/09/13 10:57:50;;;;;;;4.87;4.00;;;25.50;60.70;;;;;;4972532;28;20911;-64
2023/09/13 11:00:17;;;;;;;4.10;3.80;;;25.50;60.60;;;;;;4972636;28;20417;-66
2023/09/13 11:02:45;;;;;;;5.10;3.53;;;25.50;60.70;;;;;;4972624;28;20433;-66
2023/09/13 11:05:12;;;;;;;4.33;3.70;;;25.50;60.60;;;;;;4972832;28;20431;-67
2023/09/13 11:07:43;;;;;;;4.80;4.40;;;25.50;60.60;;;;;;4972736;28;20471;-66
2023/09/13 11:10:13;;;;;;;4.10;3.80;;;25.50;60.60;;;;;;4972387;28;20421;-65
2023/09/13 11:12:40;;;;;;;4.80;4.40;;;25.50;60.60;;;;;;4972325;28;20483;-66
2023/09/13 11:15:20;;;;;;;4.97;4.57;;;25.50;60.60;;;;;;4972671;28;20413;-64
2023/09/13 11:17:46;;;;;;;4.97;4.50;;;25.50;60.60;;;;;;4972420;28;20419;-65
2023/09/13 11:20:32;;;;;;;8.43;6.90;;;25.50;60.60;;;;;;4972153;28;20436;-66
2023/09/13 11:23:05;;;;;;;7.40;6.70;;;25.50;60.60;;;;;;4972631;28;20232;-65
2023/09/13 11:25:34;;;;;;;10.47;7.70;;;25.50;60.60;;;;;;4972182;28;20419;-66
2023/09/13 11:28:05;;;;;;;10.93;7.10;;;25.50;61.20;;;;;;4972241;28;20508;-66
2023/09/13 11:30:50;;;;;;;7.13;6.43;;;25.50;60.60;;;;;;4972528;28;20385;-66
2023/09/13 11:33:16;;;;;;;8.73;6.90;;;25.50;60.60;;;;;;4972318;28;20452;-66
2023/09/13 11:35:43;;;;;;;11.40;7.53;;;25.50;60.70;;;;;;4972220;28;20536;-64
2023/09/13 11:38:10;;;;;;;7.67;6.23;;;25.50;60.70;;;;;;4972217;28;20413;-66
2023/09/13 11:40:37;;;;;;;7.80;6.93;;;25.50;60.60;;;;;;4971907;28;20413;-67
2023/09/13 11:43:04;;;;;;;8.70;6.67;;;25.50;60.50;;;;;;4971912;28;20947;-66
2023/09/13 11:45:30;;;;;;;6.83;6.13;;;25.50;60.30;;;;;;4972042;28;20413;-66
2023/09/13 11:47:56;;;;;;;5.90;5.23;;;25.50;60.20;;;;;;4972091;28;20845;-67
2023/09/13 11:50:22;;;;;;;7.00;6.07;;;25.50;60.30;;;;;;4972152;28;20419;-65
2023/09/13 11:53:16;;;;;;;7.00;5.57;;;25.50;60.20;;;;;;4971924;28;20429;-65
2023/09/13 11:55:54;;;;;;;6.57;5.97;;;25.50;60.20;;;;;;4971108;28;20409;-66
2023/09/13 11:58:32;;;;;;;7.10;6.40;;;25.50;60.20;;;;;;4971839;28;20428;-66
2023/09/13 12:01:00;;;;;;;14.73;9.33;;;25.50;60.40;;;;;;4971874;28;20487;-66
2023/09/13 12:03:45;;;;;;;22.73;13.40;;;25.50;60.40;;;;;;4971945;28;20425;-67
2023/09/13 12:06:11;;;;;;;17.57;11.10;;;25.50;60.30;;;;;;4974368;28;20839;-66
2023/09/13 12:08:37;;;;;;;20.83;13.57;;;25.50;60.30;;;;;;4975796;28;20536;-66
2023/09/13 12:11:05;;;;;;;22.00;13.27;;;25.50;60.30;;;;;;4975730;28;20228;-67
2023/09/13 12:13:44;;;;;;;20.93;14.10;;;25.50;60.30;;;;;;4975538;28;20468;-66
2023/09/13 12:16:10;;;;;;;22.23;13.70;;;25.50;60.30;;;;;;4975756;28;20414;-65
2023/09/13 12:18:37;;;;;;;25.17;15.13;;;25.50;60.40;;;;;;4975864;28;20492;-66
2023/09/13 12:21:03;;;;;;;25.97;14.50;;;25.50;60.50;;;;;;4975494;28;20197;-66
2023/09/13 12:23:33;;;;;;;25.67;14.00;;;25.50;60.50;;;;;;4975477;28;20428;-66
2023/09/13 12:25:59;;;;;;;21.60;13.20;;;25.50;60.60;;;;;;4975513;28;20174;-66
2023/09/13 12:28:36;;;;;;;24.63;13.00;;;25.50;60.60;;;;;;4975333;28;20409;-66
2023/09/13 12:31:06;;;;;;;11.80;10.00;;;25.50;60.60;;;;;;4975459;28;20204;-66
2023/09/13 12:33:34;;;;;;;14.57;9.83;;;25.50;60.70;;;;;;4975126;28;20498;-66
2023/09/13 12:36:01;;;;;;;12.80;9.70;;;25.50;60.60;;;;;;4971467;28;20428;-66
2023/09/13 12:38:32;;;;;;;9.83;7.80;;;25.50;60.60;;;;;;4974646;28;20452;-66
2023/09/13 12:40:57;;;;;;;9.60;8.00;;;25.50;60.50;;;;;;4971750;28;20441;-64
2023/09/13 12:43:29;;;;;;;10.43;8.17;;;25.50;60.30;;;;;;4974192;28;20432;-66
2023/09/13 12:45:55;;;;;;;8.40;7.37;;;25.50;60.30;;;;;;4974931;28;20184;-66